createdAt,value
2022-10-22T01:25:25.626Z,48.28
2022-10-22T01:28:19.926Z,48.19
2022-10-22T01:30:50.435Z,48.34
2022-10-22T01:33:20.314Z,48.19
2022-10-22T02:32:50.863Z,50.53
2022-10-22T02:35:21.233Z,50.82
2022-10-22T02:37:50.077Z,51.07
2022-10-22T02:40:17.893Z,50.70
2022-10-22T02:42:47.797Z,51.10
2022-10-22T03:44:06.373Z,53.12
2022-10-22T03:46:33.182Z,53.12
2022-10-22T03:48:59.774Z,53.12
2022-10-22T03:51:28.208Z,53.06
2022-10-22T03:53:57.790Z,52.98
2022-10-22T03:56:24.907Z,53.86
2022-10-22T03:58:59.655Z,54.15
2022-10-22T04:01:29.073Z,54.22
2022-10-22T04:03:56.943Z,54.90
2022-10-22T04:06:24.353Z,55.08
2022-10-22T04:08:51.257Z,55.88
2022-10-22T04:11:18.318Z,55.47
2022-10-22T04:13:51.185Z,55.05
2022-10-22T04:16:20.266Z,55.50
2022-10-22T04:18:49.320Z,56.66
2022-10-22T04:21:21.514Z,57.73
2022-10-22T04:23:51.835Z,57.88
2022-10-22T04:26:27.449Z,57.26
2022-10-22T04:28:54.180Z,57.33
2022-10-22T04:31:30.589Z,58.01
2022-10-22T04:34:00.249Z,57.82
2022-10-22T04:39:03.911Z,56.84
2022-10-22T04:41:32.859Z,56.42
2022-10-22T04:44:00.345Z,56.23
2022-10-22T04:59:29.725Z,55.01
2022-10-22T05:02:02.030Z,55.09
2022-10-22T05:04:31.906Z,56.25
2022-10-22T05:06:58.776Z,56.65
2022-10-22T05:09:28.480Z,56.71
2022-10-22T05:12:01.310Z,57.20
2022-10-22T05:14:31.117Z,57.88
2022-10-22T05:16:57.766Z,58.29
2022-10-22T05:19:35.951Z,57.46
2022-10-22T05:22:09.661Z,58.11
2022-10-22T05:41:37.350Z,59.25
2022-10-22T05:44:05.538Z,58.50
2022-10-22T05:46:36.084Z,57.88
2022-10-22T05:49:05.365Z,58.29
2022-10-22T06:07:47.028Z,56.92
2022-10-22T06:18:41.254Z,56.32
2022-10-22T06:21:13.265Z,56.36
2022-10-22T06:23:40.907Z,55.74
2022-10-22T06:26:08.119Z,55.73
2022-10-22T06:28:36.052Z,55.37
2022-10-22T06:31:04.652Z,55.08
2022-10-22T06:33:33.236Z,54.85
2022-10-22T06:36:12.403Z,54.58
2022-10-22T06:38:39.593Z,54.81
2022-10-22T06:41:09.253Z,54.46
2022-10-22T06:43:35.852Z,54.33
2022-10-22T08:36:08.217Z,46.62
2022-10-22T08:38:35.366Z,47.30
2022-10-22T08:41:34.574Z,46.53
2022-10-22T08:44:19.408Z,45.31
2022-10-22T08:47:02.083Z,44.94
2022-10-22T08:49:41.423Z,44.88
2022-10-22T08:52:43.209Z,44.98
2022-10-22T08:55:37.218Z,44.61
2022-10-22T08:58:45.854Z,45.37
2022-10-22T09:01:45.733Z,44.79
2022-10-22T09:18:39.412Z,44.68
2022-10-22T09:21:15.091Z,44.43
2022-10-22T09:24:04.829Z,44.14
2022-10-22T09:26:37.061Z,44.24
2022-10-22T09:54:28.298Z,45.69
2022-10-22T09:57:03.687Z,45.59
2022-10-22T09:59:33.243Z,45.66
2022-10-22T10:02:19.777Z,45.62
2022-10-22T10:04:56.183Z,45.95
2022-10-22T10:07:26.323Z,45.36
2022-10-22T10:09:54.279Z,45.40
2022-10-22T10:12:49.113Z,46.04
2022-10-22T10:15:32.095Z,46.12
2022-10-22T10:18:01.597Z,45.99
2022-10-22T10:20:41.035Z,45.83
2022-10-22T10:23:18.600Z,46.28
2022-10-22T10:50:19.018Z,45.30
2022-10-22T10:53:17.594Z,46.63
2022-10-22T10:56:00.090Z,45.92
2022-10-22T13:29:41.665Z,48.95
2022-10-22T13:32:30.365Z,49.39
2022-10-22T13:35:02.271Z,49.36
2022-10-22T13:37:31.334Z,49.38
2022-10-22T14:58:55.806Z,52.88
2022-10-22T15:01:22.354Z,53.73
2022-10-22T15:42:39.868Z,55.16
2022-10-22T15:45:07.097Z,55.40
2022-10-22T15:47:34.327Z,55.31
2022-10-22T15:50:00.908Z,55.83
2022-10-22T15:52:27.465Z,55.99
2022-10-22T15:54:54.161Z,56.31
2022-10-22T16:03:20.723Z,57.95
2022-10-22T16:05:54.524Z,58.73
2022-10-22T16:08:21.302Z,60.04
2022-10-22T16:10:48.630Z,60.66
2022-10-22T16:13:15.710Z,61.28
2022-10-22T16:15:42.351Z,61.94
2022-10-22T16:18:08.876Z,62.17
2022-10-22T16:20:42.412Z,63.49
2022-10-22T16:23:09.148Z,64.30
2022-10-22T16:25:39.618Z,64.63
2022-10-22T16:28:06.425Z,65.88
2022-10-22T16:30:34.501Z,67.15
2022-10-22T16:33:03.432Z,68.27
2022-10-22T16:35:30.933Z,67.87
2022-10-22T16:37:57.834Z,68.03
2022-10-22T16:40:24.721Z,69.17
2022-10-22T16:42:51.513Z,69.06
2022-10-22T16:45:18.267Z,69.67
2022-10-22T16:47:47.007Z,70.53
2022-10-22T16:50:19.199Z,70.23
2022-10-22T16:52:54.770Z,69.91
2022-10-22T16:55:29.311Z,70.16
2022-10-22T16:58:04.216Z,70.21
2022-10-22T17:00:33.500Z,70.05
2022-10-22T17:03:00.150Z,69.38
2022-10-22T17:05:26.852Z,69.71
2022-10-22T17:07:53.526Z,70.36
2022-10-22T17:10:26.223Z,70.32
2022-10-22T17:12:52.874Z,70.06
2022-10-22T17:15:19.483Z,70.59
2022-10-22T17:18:35.322Z,70.67
2022-10-22T17:20:35.819Z,70.32
2022-10-22T17:23:09.694Z,69.24
2022-10-22T17:25:45.752Z,69.20
2022-10-22T17:28:21.348Z,68.84
2022-10-22T17:30:51.257Z,68.96
2022-10-22T17:33:20.675Z,68.49
2022-10-22T17:35:49.389Z,68.92
2022-10-22T17:38:15.990Z,68.46
2022-10-22T17:40:42.602Z,68.55
2022-10-22T17:43:09.156Z,68.69
2022-10-22T17:45:36.196Z,68.32
2022-10-22T17:48:02.806Z,68.42
2022-10-22T17:50:29.481Z,68.35
2022-10-22T17:52:56.066Z,68.65
2022-10-22T17:55:22.795Z,68.46
2022-10-22T17:57:49.463Z,68.80
2022-10-22T18:02:59.170Z,68.36
2022-10-22T18:11:28.495Z,68.29
2022-10-22T18:13:56.808Z,68.31
2022-10-22T18:16:26.545Z,68.81
2022-10-22T18:18:56.036Z,68.96
2022-10-22T18:21:27.422Z,69.01
2022-10-22T18:29:19.797Z,68.80
2022-10-22T18:31:47.334Z,69.79
2022-10-22T18:34:15.141Z,69.74
2022-10-22T18:36:42.672Z,69.92
2022-10-22T18:39:14.830Z,70.07
2022-10-22T18:41:42.280Z,70.72
2022-10-22T18:44:11.839Z,70.80
2022-10-22T18:46:39.674Z,71.41
2022-10-22T18:49:07.365Z,71.17
2022-10-22T18:51:35.176Z,71.54
2022-10-22T18:54:22.263Z,71.66
2022-10-22T18:56:49.313Z,71.91
2022-10-22T18:59:24.500Z,71.77
2022-10-22T19:01:55.537Z,71.80
2022-10-22T19:04:22.342Z,72.16
2022-10-22T19:06:49.276Z,72.17
2022-10-22T19:09:16.693Z,71.56
2022-10-22T19:11:46.936Z,72.15
2022-10-22T19:14:15.066Z,72.14
2022-10-22T19:16:41.992Z,72.46
2022-10-22T19:19:08.662Z,71.94
2022-10-22T19:45:04.775Z,72.52
2022-10-22T19:47:31.700Z,72.45
2022-10-22T19:49:58.364Z,72.19
2022-10-22T19:52:25.174Z,71.71
2022-10-22T19:54:51.818Z,71.50
2022-10-22T19:57:18.944Z,71.77
2022-10-22T19:59:45.916Z,71.75
2022-10-22T20:02:17.575Z,71.46
2022-10-22T20:04:49.108Z,71.67
2022-10-22T20:07:16.913Z,72.19
2022-10-22T20:24:11.318Z,71.70
2022-10-22T20:31:48.524Z,71.64
2022-10-22T20:42:15.419Z,72.59
2022-10-22T20:56:54.077Z,72.18
2022-10-22T20:59:21.126Z,72.37
2022-10-22T21:01:51.108Z,71.30
2022-10-22T21:04:20.424Z,72.29
2022-10-22T21:06:48.647Z,72.54
2022-10-22T21:09:15.398Z,72.72
2022-10-22T21:12:03.310Z,72.32
2022-10-22T21:42:18.816Z,74.45
2022-10-22T21:44:45.353Z,75.00
2022-10-22T21:47:11.890Z,76.26
2022-10-22T21:49:38.405Z,75.52
2022-10-22T21:52:07.018Z,74.99
2022-10-22T21:54:35.751Z,75.12
2022-10-22T21:58:17.041Z,74.73
2022-10-22T22:01:12.518Z,75.15
2022-10-22T22:03:42.608Z,76.04
2022-10-22T22:06:09.203Z,75.86
2022-10-22T22:08:36.766Z,74.96
